Time;durP1;ratioP1;P1;durP2;ratioP2;P2;SDS_P1;SDS_P2;PMS_P1;PMS_P2;Temp;Humidity;BMP_temperature;BMP_pressure;BME280_temperature;BME280_humidity;BME280_pressure;Samples;Min_cycle;Max_cycle;Signal;HPM_P1;HPM_P2
2021/05/09 00:00:34;;;;;;;2.00;1.80;;;10.80;99.90;;;;;;5075865;28;20181;-74
2021/05/09 00:03:00;;;;;;;2.50;2.10;;;10.80;99.90;;;;;;5074553;28;20293;-76
2021/05/09 00:05:26;;;;;;;2.13;1.63;;;10.80;99.90;;;;;;5075749;28;20231;-74
2021/05/09 00:07:51;;;;;;;1.93;1.60;;;10.70;99.90;;;;;;5075823;28;20628;-73
2021/05/09 00:10:19;;;;;;;2.33;1.67;;;10.60;99.90;;;;;;5075853;28;20235;-74
2021/05/09 00:12:46;;;;;;;2.70;1.63;;;10.40;99.90;;;;;;5075574;28;20682;-75
2021/05/09 00:15:12;;;;;;;2.10;1.50;;;10.40;99.90;;;;;;5075707;28;20184;-75
2021/05/09 00:17:38;;;;;;;1.80;1.40;;;10.20;99.90;;;;;;5074136;28;20184;-72
2021/05/09 00:20:07;;;;;;;1.93;1.50;;;10.30;99.90;;;;;;5075803;28;20177;-75
2021/05/09 00:22:33;;;;;;;1.50;1.40;;;10.40;99.90;;;;;;5067938;28;20212;-74
2021/05/09 00:24:59;;;;;;;2.57;1.80;;;10.40;99.90;;;;;;5075726;28;20600;-75
2021/05/09 00:27:24;;;;;;;1.40;1.30;;;10.50;99.90;;;;;;5074238;28;20549;-75
2021/05/09 00:29:50;;;;;;;1.70;1.60;;;10.50;99.90;;;;;;5075519;28;20658;-74
2021/05/09 00:32:16;;;;;;;1.83;1.73;;;10.50;99.90;;;;;;5075147;28;20556;-75
2021/05/09 00:34:41;;;;;;;2.70;1.53;;;10.50;99.90;;;;;;5075211;28;20180;-75
2021/05/09 00:37:07;;;;;;;2.00;1.67;;;10.50;99.90;;;;;;5075556;28;20642;-73
2021/05/09 00:39:32;;;;;;;2.13;1.93;;;10.50;99.90;;;;;;5075179;28;20180;-74
2021/05/09 00:42:06;;;;;;;2.00;1.80;;;10.40;99.90;;;;;;5075139;28;20200;-76
2021/05/09 00:44:32;;;;;;;1.50;1.40;;;10.40;99.90;;;;;;5075035;28;20207;-74
2021/05/09 00:47:00;;;;;;;2.27;1.70;;;10.30;99.90;;;;;;5075030;28;20674;-74
2021/05/09 00:49:26;;;;;;;1.60;1.50;;;10.20;99.90;;;;;;5075141;28;20178;-74
2021/05/09 00:51:52;;;;;;;1.50;1.40;;;10.10;99.90;;;;;;5073485;28;20213;-74
2021/05/09 00:54:22;;;;;;;1.67;1.57;;;10.10;99.90;;;;;;5075004;28;20228;-75
2021/05/09 00:56:48;;;;;;;2.33;1.60;;;10.00;99.90;;;;;;5075079;28;20212;-75
2021/05/09 00:59:16;;;;;;;2.17;1.97;;;;;;;;;;5073995;28;20216;-74
2021/05/09 01:01:43;;;;;;;1.87;1.60;;;10.00;99.90;;;;;;5073410;28;20207;-74
2021/05/09 01:04:13;;;;;;;2.23;1.43;;;10.00;99.90;;;;;;5074618;28;20196;-74
2021/05/09 01:06:40;;;;;;;2.57;1.80;;;10.00;99.90;;;;;;5075188;28;20177;-75
2021/05/09 01:09:06;;;;;;;1.80;1.70;;;10.10;99.90;;;;;;5074616;28;20259;-74
2021/05/09 01:11:32;;;;;;;2.13;1.90;;;10.00;99.90;;;;;;5074553;28;20208;-75
2021/05/09 01:13:58;;;;;;;1.87;1.53;;;10.10;99.90;;;;;;5074598;28;20733;-74
2021/05/09 01:16:23;;;;;;;1.83;1.73;;;10.10;99.90;;;;;;5074492;28;20580;-75
2021/05/09 01:18:49;;;;;;;1.90;1.70;;;10.10;99.90;;;;;;5074453;28;20238;-75
2021/05/09 01:21:15;;;;;;;2.47;1.93;;;10.10;99.90;;;;;;5073052;28;20176;-75
2021/05/09 01:23:40;;;;;;;2.20;2.00;;;10.10;99.90;;;;;;5072976;28;20253;-74
2021/05/09 01:26:06;;;;;;;1.60;1.50;;;10.00;99.90;;;;;;5072984;28;21560;-74
2021/05/09 01:28:32;;;;;;;1.70;1.60;;;10.00;99.90;;;;;;5074277;28;20176;-74
2021/05/09 01:30:58;;;;;;;2.93;1.90;;;10.00;99.90;;;;;;5072806;28;20184;-74
2021/05/09 01:33:24;;;;;;;1.73;1.40;;;9.80;99.90;;;;;;5073988;28;20230;-74
2021/05/09 01:35:49;;;;;;;2.53;2.00;;;9.80;99.90;;;;;;5074102;28;20215;-75
2021/05/09 01:38:16;;;;;;;1.90;1.80;;;9.40;99.90;;;;;;5074149;28;20200;-74
2021/05/09 01:40:41;;;;;;;2.43;2.07;;;9.40;99.90;;;;;;5071936;28;20239;-74
2021/05/09 01:43:07;;;;;;;2.00;1.83;;;9.50;99.90;;;;;;5070619;28;20212;-74
2021/05/09 01:45:32;;;;;;;2.53;2.00;;;9.50;99.90;;;;;;5073719;28;20212;-74
2021/05/09 01:47:58;;;;;;;4.97;1.80;;;9.60;99.90;;;;;;5073726;28;20265;-72
2021/05/09 01:50:24;;;;;;;1.70;1.50;;;9.60;99.90;;;;;;5074001;28;20218;-75
2021/05/09 01:52:49;;;;;;;2.90;1.77;;;9.60;99.90;;;;;;5073595;28;20220;-74
2021/05/09 01:55:22;;;;;;;1.83;1.50;;;9.60;99.90;;;;;;5073730;28;20184;-74
2021/05/09 01:57:48;;;;;;;1.70;1.60;;;9.60;99.90;;;;;;5073905;28;20183;-75
2021/05/09 02:00:16;;;;;;;1.90;1.80;;;9.60;99.90;;;;;;5072444;28;20237;-75
2021/05/09 02:02:42;;;;;;;1.87;1.77;;;9.60;99.90;;;;;;5073536;28;20199;-75
2021/05/09 02:05:08;;;;;;;2.20;2.07;;;9.60;99.90;;;;;;5073549;28;20215;-74
2021/05/09 02:07:34;;;;;;;3.13;1.87;;;9.50;99.90;;;;;;5073544;28;20179;-74
2021/05/09 02:10:00;;;;;;;2.80;1.87;;;9.50;99.90;;;;;;5066784;28;20635;-75
2021/05/09 02:12:26;;;;;;;1.70;1.50;;;9.50;99.90;;;;;;5063772;28;20222;-74
2021/05/09 02:14:53;;;;;;;2.53;1.90;;;9.60;99.90;;;;;;5069139;28;20187;-74
2021/05/09 02:17:19;;;;;;;1.70;1.60;;;9.60;99.90;;;;;;5071640;28;20318;-74
2021/05/09 02:19:49;;;;;;;1.50;1.40;;;9.60;99.90;;;;;;5072588;28;20638;-75
2021/05/09 02:22:15;;;;;;;1.80;1.70;;;9.50;99.90;;;;;;5073392;28;20313;-74
2021/05/09 02:24:44;;;;;;;1.60;1.50;;;9.50;99.90;;;;;;5073425;28;20234;-75
2021/05/09 02:27:10;;;;;;;2.70;1.90;;;9.40;99.90;;;;;;5072703;28;20654;-74
2021/05/09 02:29:37;;;;;;;1.90;1.80;;;9.40;99.90;;;;;;5073326;28;20173;-75
2021/05/09 02:32:03;;;;;;;1.73;1.63;;;9.30;99.90;;;;;;5073052;28;20283;-75
2021/05/09 02:34:31;;;;;;;1.80;1.70;;;9.30;99.90;;;;;;5071878;28;20187;-74
2021/05/09 02:36:57;;;;;;;2.33;2.17;;;9.30;99.90;;;;;;5073130;28;20609;-75
2021/05/09 02:39:23;;;;;;;1.87;1.67;;;9.30;99.90;;;;;;5071827;28;20215;-74
2021/05/09 02:41:48;;;;;;;3.17;1.90;;;9.30;99.90;;;;;;5073318;28;20211;-74
2021/05/09 02:44:14;;;;;;;1.63;1.53;;;9.20;99.90;;;;;;5072336;28;20253;-75
2021/05/09 02:46:40;;;;;;;1.70;1.60;;;9.20;99.90;;;;;;5072969;28;20184;-74
2021/05/09 02:49:05;;;;;;;1.97;1.40;;;9.20;99.90;;;;;;5073324;28;20226;-75
2021/05/09 02:51:31;;;;;;;2.23;1.80;;;9.10;99.90;;;;;;5072976;28;20184;-74
2021/05/09 02:53:57;;;;;;;1.90;1.70;;;9.20;99.90;;;;;;5074474;28;20216;-74
2021/05/09 02:56:22;;;;;;;3.07;1.90;;;9.10;99.90;;;;;;5073081;28;20176;-75
2021/05/09 02:58:48;;;;;;;4.00;1.60;;;8.80;99.90;;;;;;5072894;28;20179;-75
2021/05/09 03:01:13;;;;;;;2.13;1.67;;;8.70;99.90;;;;;;5071690;28;20183;-74
2021/05/09 03:03:39;;;;;;;1.70;1.60;;;8.60;99.90;;;;;;5072839;28;20209;-74
2021/05/09 03:06:05;;;;;;;1.63;1.53;;;8.60;99.90;;;;;;5073151;28;20185;-75
2021/05/09 03:08:33;;;;;;;2.53;1.80;;;8.60;99.90;;;;;;5071804;28;20660;-74
2021/05/09 03:10:59;;;;;;;3.93;1.97;;;8.60;99.90;;;;;;5072725;28;20228;-74
2021/05/09 03:13:24;;;;;;;2.10;1.90;;;8.40;99.90;;;;;;5069781;28;20311;-72
2021/05/09 03:15:50;;;;;;;2.50;2.07;;;8.40;99.90;;;;;;5056164;28;20180;-75
2021/05/09 03:18:16;;;;;;;2.90;2.03;;;8.60;99.90;;;;;;5055742;28;20667;-74
2021/05/09 03:20:41;;;;;;;2.23;1.93;;;8.70;99.90;;;;;;5053205;28;20183;-74
2021/05/09 03:23:07;;;;;;;2.10;1.90;;;8.70;99.90;;;;;;5057684;28;20283;-75
2021/05/09 03:25:33;;;;;;;3.13;2.10;;;8.80;99.90;;;;;;5053836;28;20223;-75
2021/05/09 03:27:59;;;;;;;2.33;2.00;;;8.80;99.90;;;;;;5058783;28;20179;-75
2021/05/09 03:30:25;;;;;;;4.37;1.90;;;8.80;99.90;;;;;;5055633;28;20191;-74
2021/05/09 03:32:50;;;;;;;2.37;1.63;;;8.80;99.90;;;;;;5065613;28;20195;-74
2021/05/09 03:35:16;;;;;;;2.03;1.93;;;8.80;99.90;;;;;;5074162;28;20184;-75
2021/05/09 03:37:42;;;;;;;2.10;1.90;;;8.80;99.90;;;;;;5072823;28;20618;-75
2021/05/09 03:40:08;;;;;;;2.07;1.83;;;8.80;99.90;;;;;;5070812;28;20251;-74
2021/05/09 03:42:34;;;;;;;1.83;1.63;;;8.80;99.90;;;;;;5073076;28;20711;-76
2021/05/09 03:45:01;;;;;;;2.90;1.90;;;8.70;99.90;;;;;;5072890;28;20239;-75
2021/05/09 03:47:26;;;;;;;1.83;1.73;;;8.70;99.90;;;;;;5072243;28;20176;-74
2021/05/09 03:49:53;;;;;;;1.83;1.60;;;8.60;99.90;;;;;;5070378;28;20540;-75
2021/05/09 03:52:19;;;;;;;4.97;2.10;;;8.70;99.90;;;;;;5074231;28;20215;-74
2021/05/09 03:54:44;;;;;;;1.60;1.50;;;8.60;99.90;;;;;;5072766;28;20227;-74
2021/05/09 03:57:10;;;;;;;2.90;1.70;;;8.60;99.90;;;;;;5073123;28;20186;-75
2021/05/09 03:59:36;;;;;;;1.77;1.67;;;8.60;99.90;;;;;;5073354;28;20558;-74
2021/05/09 04:02:01;;;;;;;2.03;1.67;;;8.60;99.90;;;;;;5059786;28;20258;-74
2021/05/09 04:04:27;;;;;;;3.90;1.70;;;8.60;99.90;;;;;;5051825;28;20199;-76
2021/05/09 04:06:52;;;;;;;2.47;1.77;;;8.60;99.90;;;;;;5065606;28;20190;-75
2021/05/09 04:09:18;;;;;;;2.17;1.70;;;8.60;99.90;;;;;;5069015;28;20880;-74
2021/05/09 04:11:43;;;;;;;1.60;1.50;;;8.50;99.90;;;;;;5072442;28;20203;-75
2021/05/09 04:14:09;;;;;;;1.60;1.50;;;8.50;99.90;;;;;;5074867;28;20224;-74
2021/05/09 04:16:35;;;;;;;1.40;1.30;;;8.50;99.90;;;;;;5072669;28;20191;-74
2021/05/09 04:19:00;;;;;;;1.93;1.73;;;8.60;99.90;;;;;;5073288;28;20194;-75
2021/05/09 04:21:26;;;;;;;2.03;1.60;;;8.60;99.90;;;;;;5074412;28;20186;-75
2021/05/09 04:23:51;;;;;;;1.60;1.50;;;8.50;99.90;;;;;;5072331;28;20193;-72
2021/05/09 04:26:17;;;;;;;1.80;1.70;;;8.60;99.90;;;;;;5072986;28;20173;-74
2021/05/09 04:28:43;;;;;;;2.37;1.90;;;8.50;99.90;;;;;;5071708;28;20178;-74
2021/05/09 04:31:08;;;;;;;1.67;1.50;;;8.50;99.90;;;;;;5071856;28;20176;-75
2021/05/09 04:33:34;;;;;;;1.70;1.60;;;8.50;99.90;;;;;;5071773;28;20205;-74
2021/05/09 04:36:00;;;;;;;1.90;1.80;;;8.40;99.90;;;;;;5073032;28;20603;-76
2021/05/09 04:38:25;;;;;;;2.73;1.77;;;8.40;99.90;;;;;;5073020;28;20185;-74
2021/05/09 04:40:51;;;;;;;1.70;1.60;;;8.40;99.90;;;;;;5072916;28;20697;-75
2021/05/09 04:43:18;;;;;;;1.50;1.20;;;8.50;99.90;;;;;;5071416;28;20244;-74
2021/05/09 04:45:50;;;;;;;2.37;1.90;;;8.50;99.90;;;;;;5072875;28;20204;-74
2021/05/09 04:48:16;;;;;;;2.83;1.70;;;8.50;99.90;;;;;;5074221;28;20529;-74
2021/05/09 04:50:42;;;;;;;2.17;1.73;;;8.50;99.90;;;;;;5072459;28;20172;-75
2021/05/09 04:53:36;;;;;;;2.87;2.00;;;8.60;99.90;;;;;;5072527;28;20226;-74
2021/05/09 04:56:06;;;;;;;1.63;1.53;;;8.60;99.90;;;;;;5072818;28;20209;-74
2021/05/09 04:58:32;;;;;;;3.70;2.23;;;8.60;99.90;;;;;;5073150;28;20188;-75
2021/05/09 05:01:02;;;;;;;4.60;2.30;;;8.60;99.90;;;;;;5070324;28;20191;-74
2021/05/09 05:03:29;;;;;;;2.30;2.10;;;8.70;99.90;;;;;;5072555;28;20687;-74
2021/05/09 05:05:55;;;;;;;2.20;2.00;;;8.70;99.90;;;;;;5072173;28;20225;-74
2021/05/09 05:08:21;;;;;;;2.00;1.70;;;8.80;99.90;;;;;;5072300;28;20265;-75
2021/05/09 05:10:49;;;;;;;2.30;1.80;;;8.90;99.90;;;;;;5071365;28;20210;-74
2021/05/09 05:13:26;;;;;;;2.37;1.53;;;8.90;99.90;;;;;;5072366;28;20567;-73
2021/05/09 05:15:54;;;;;;;1.70;1.60;;;8.70;99.90;;;;;;5071945;28;20197;-75
2021/05/09 05:18:20;;;;;;;1.77;1.67;;;8.80;99.90;;;;;;5071198;28;20188;-75
2021/05/09 05:20:46;;;;;;;2.07;1.90;;;8.90;99.90;;;;;;5072084;28;20189;-74
2021/05/09 05:23:13;;;;;;;4.70;2.10;;;9.00;99.90;;;;;;5065267;28;20263;-73
2021/05/09 05:25:39;;;;;;;2.27;1.80;;;9.00;99.90;;;;;;5071020;28;20210;-74
2021/05/09 05:28:06;;;;;;;2.73;2.03;;;9.00;99.90;;;;;;5071835;28;20185;-74
2021/05/09 05:30:33;;;;;;;2.03;1.83;;;9.10;99.90;;;;;;5067779;28;20184;-74
2021/05/09 05:32:59;;;;;;;2.20;1.77;;;9.20;99.90;;;;;;5067004;28;20218;-74
2021/05/09 05:35:26;;;;;;;3.70;1.97;;;9.30;99.90;;;;;;5061862;28;20643;-75
2021/05/09 05:37:52;;;;;;;2.33;1.67;;;9.40;99.90;;;;;;5067244;28;20184;-74
2021/05/09 05:40:19;;;;;;;2.50;1.80;;;9.30;99.90;;;;;;5068540;28;20635;-74
2021/05/09 05:42:44;;;;;;;2.23;1.90;;;9.50;99.90;;;;;;5071946;28;20211;-74
2021/05/09 05:45:10;;;;;;;2.17;1.90;;;9.70;99.90;;;;;;5071071;28;20209;-75
2021/05/09 05:47:36;;;;;;;2.00;1.80;;;9.80;99.90;;;;;;5071699;28;20184;-74
2021/05/09 05:50:05;;;;;;;2.60;1.60;;;10.00;99.90;;;;;;5071499;28;20176;-75
2021/05/09 05:52:31;;;;;;;2.83;1.87;;;10.00;99.90;;;;;;5071303;28;20219;-75
2021/05/09 05:54:56;;;;;;;2.00;1.80;;;9.80;99.90;;;;;;5072113;28;20191;-74
2021/05/09 05:57:22;;;;;;;2.27;1.83;;;9.90;99.90;;;;;;5072702;28;20184;-74
2021/05/09 05:59:48;;;;;;;3.17;1.73;;;10.00;99.90;;;;;;5065080;28;20776;-74
2021/05/09 06:02:13;;;;;;;2.60;1.70;;;10.10;99.90;;;;;;5063960;28;20250;-74
2021/05/09 06:04:40;;;;;;;8.77;6.20;;;10.20;99.90;;;;;;5070705;28;20293;-74
2021/05/09 06:07:09;;;;;;;5.43;4.33;;;10.20;99.90;;;;;;5070497;28;20234;-74
2021/05/09 06:09:35;;;;;;;2.43;2.20;;;10.30;99.90;;;;;;5058360;28;20527;-74
2021/05/09 06:12:02;;;;;;;2.07;1.70;;;10.50;99.90;;;;;;5056556;28;20195;-74
2021/05/09 06:14:28;;;;;;;1.90;1.70;;;10.60;99.90;;;;;;5070967;28;20262;-74
2021/05/09 06:16:54;;;;;;;3.13;2.00;;;10.70;99.90;;;;;;5055277;28;20635;-74
2021/05/09 06:19:19;;;;;;;2.87;1.73;;;10.80;99.90;;;;;;5058094;28;20176;-74
2021/05/09 06:21:45;;;;;;;2.07;1.50;;;10.80;99.90;;;;;;5053738;28;20288;-75
2021/05/09 06:24:11;;;;;;;2.27;1.50;;;11.00;99.90;;;;;;5054114;28;20198;-75
2021/05/09 06:26:36;;;;;;;6.97;1.97;;;11.30;99.90;;;;;;5053248;28;20200;-75
2021/05/09 06:29:02;;;;;;;1.80;1.70;;;11.40;99.90;;;;;;5056036;28;20173;-74
2021/05/09 06:31:28;;;;;;;1.60;1.50;;;11.50;99.90;;;;;;5060225;28;20189;-75
2021/05/09 06:33:53;;;;;;;1.63;1.33;;;11.60;99.90;;;;;;5060214;28;20231;-75
2021/05/09 06:36:19;;;;;;;1.83;1.73;;;11.60;99.90;;;;;;5085748;28;20203;-75
2021/05/09 06:38:45;;;;;;;1.67;1.47;;;11.70;99.90;;;;;;5092000;28;20247;-75
2021/05/09 06:41:10;;;;;;;2.63;1.50;;;11.90;99.90;;;;;;5091729;28;20248;-75
2021/05/09 06:43:36;;;;;;;2.43;1.87;;;12.00;99.90;;;;;;5091744;28;20207;-74
2021/05/09 06:46:02;;;;;;;2.97;1.60;;;12.10;99.90;;;;;;5091623;28;20226;-75
2021/05/09 06:48:28;;;;;;;1.60;1.30;;;12.50;99.90;;;;;;5091689;28;20192;-74
2021/05/09 06:50:54;;;;;;;1.60;1.50;;;12.90;99.90;;;;;;5082337;28;20651;-75
2021/05/09 06:53:19;;;;;;;3.97;1.60;;;12.80;99.90;;;;;;5072202;28;20216;-74
2021/05/09 06:55:49;;;;;;;2.23;1.70;;;12.80;99.90;;;;;;5070092;28;20655;-75
2021/05/09 06:58:15;;;;;;;1.80;1.60;;;12.80;99.90;;;;;;5073925;28;20181;-74
2021/05/09 07:00:41;;;;;;;1.37;1.20;;;12.90;99.90;;;;;;5075560;28;20177;-74
2021/05/09 07:03:07;;;;;;;2.20;1.50;;;12.90;99.90;;;;;;5075779;28;20232;-74
2021/05/09 07:05:36;;;;;;;2.30;1.80;;;13.00;99.90;;;;;;5074046;28;20232;-74
2021/05/09 07:08:02;;;;;;;1.70;1.33;;;13.00;99.90;;;;;;5075757;28;20177;-74
2021/05/09 07:10:28;;;;;;;1.60;1.50;;;13.20;99.90;;;;;;5074354;28;20548;-75
2021/05/09 07:12:56;;;;;;;1.70;1.60;;;13.20;99.90;;;;;;5074089;28;20185;-74
2021/05/09 07:15:35;;;;;;;3.57;1.50;;;13.40;99.90;;;;;;5076007;28;20181;-74
2021/05/09 07:18:17;;;;;;;1.60;1.30;;;13.70;99.90;;;;;;5075623;28;20169;-74
2021/05/09 07:20:44;;;;;;;2.87;2.57;;;13.80;99.90;;;;;;5075337;28;20184;-75
2021/05/09 07:23:12;;;;;;;7.27;3.57;;;14.10;99.90;;;;;;5073905;28;20680;-75
2021/05/09 07:25:39;;;;;;;5.10;3.30;;;14.20;99.90;;;;;;5073797;28;20201;-75
2021/05/09 07:28:08;;;;;;;4.57;3.00;;;14.30;99.90;;;;;;5075152;28;20281;-74
2021/05/09 07:30:35;;;;;;;7.37;3.63;;;14.20;99.90;;;;;;5073670;28;20205;-74
2021/05/09 07:33:01;;;;;;;4.60;3.13;;;14.30;99.90;;;;;;5075068;28;20199;-75
2021/05/09 07:35:27;;;;;;;6.57;3.70;;;14.40;99.90;;;;;;5075426;28;20248;-74
2021/05/09 07:37:53;;;;;;;3.83;2.60;;;14.50;99.90;;;;;;5073011;28;20176;-75
2021/05/09 07:40:22;;;;;;;4.50;3.23;;;14.60;99.90;;;;;;5075510;28;20185;-74
2021/05/09 07:42:49;;;;;;;4.77;3.30;;;14.70;99.90;;;;;;5074503;28;20195;-75
2021/05/09 07:45:17;;;;;;;4.27;2.60;;;14.80;99.90;;;;;;5074110;28;20243;-75
2021/05/09 07:47:44;;;;;;;4.37;2.90;;;14.90;99.90;;;;;;5074486;28;20545;-75
2021/05/09 07:50:11;;;;;;;5.93;2.63;;;15.00;99.90;;;;;;5076145;28;20255;-75
2021/05/09 07:52:37;;;;;;;5.10;2.70;;;15.00;99.90;;;;;;5073403;28;20588;-75
2021/05/09 07:55:04;;;;;;;3.47;2.40;;;15.10;99.90;;;;;;5073352;28;20205;-75
2021/05/09 07:57:30;;;;;;;3.37;2.20;;;15.40;99.90;;;;;;5074304;28;20629;-75
2021/05/09 07:59:56;;;;;;;3.43;2.10;;;15.70;99.90;;;;;;5084322;28;20212;-75
2021/05/09 08:02:21;;;;;;;5.67;2.10;;;15.90;99.90;;;;;;5080260;28;20199;-75
2021/05/09 08:04:47;;;;;;;2.10;1.83;;;16.00;99.90;;;;;;5073926;28;20257;-75
2021/05/09 08:07:13;;;;;;;3.17;1.40;;;16.10;99.90;;;;;;5074517;28;20181;-74
2021/05/09 08:09:39;;;;;;;1.67;1.37;;;16.10;99.90;;;;;;5075216;28;20173;-75
2021/05/09 08:12:05;;;;;;;1.73;1.23;;;16.10;99.90;;;;;;5073047;28;20250;-75
2021/05/09 08:14:30;;;;;;;1.90;1.30;;;16.10;99.90;;;;;;5072053;28;20238;-75
2021/05/09 08:16:57;;;;;;;1.83;0.90;;;16.30;99.90;;;;;;5055130;28;20186;-75
2021/05/09 08:19:22;;;;;;;1.63;1.30;;;16.40;99.90;;;;;;5073033;28;20172;-75
2021/05/09 08:21:50;;;;;;;1.47;1.20;;;16.50;99.90;;;;;;5072922;28;20673;-75
2021/05/09 08:24:15;;;;;;;1.20;1.10;;;16.50;99.90;;;;;;5083208;28;20208;-74
2021/05/09 08:26:41;;;;;;;1.87;1.10;;;16.60;99.90;;;;;;5073833;28;20257;-75
2021/05/09 08:29:07;;;;;;;1.10;1.00;;;16.60;99.90;;;;;;5064329;28;20653;-76
2021/05/09 08:31:34;;;;;;;1.10;1.00;;;16.70;99.90;;;;;;5080860;28;20630;-75
2021/05/09 08:33:59;;;;;;;1.17;1.07;;;16.70;99.90;;;;;;5072462;28;20189;-75
2021/05/09 08:36:25;;;;;;;1.43;1.20;;;16.90;99.90;;;;;;5071012;28;20177;-76
2021/05/09 08:38:51;;;;;;;1.20;1.00;;;17.00;99.90;;;;;;5094036;28;20258;-75
2021/05/09 08:41:17;;;;;;;1.03;0.90;;;;;;;;;;5082818;28;20176;-75
2021/05/09 08:43:43;;;;;;;1.80;1.40;;;17.60;99.90;;;;;;5074091;28;20614;-76
2021/05/09 08:46:11;;;;;;;1.30;1.00;;;17.60;99.90;;;;;;5074940;28;20621;-75
2021/05/09 08:48:37;;;;;;;2.37;1.67;;;17.80;99.90;;;;;;5076347;28;20169;-76
2021/05/09 08:51:06;;;;;;;2.43;1.70;;;17.80;99.90;;;;;;5073620;28;20168;-76
2021/05/09 08:53:33;;;;;;;3.33;1.50;;;18.00;99.90;;;;;;5091860;22;20703;-75
2021/05/09 08:55:59;;;;;;;3.70;1.60;;;18.20;99.90;;;;;;5058426;28;20175;-76
2021/05/09 08:58:24;;;;;;;2.87;1.50;;;18.30;99.90;;;;;;5073371;28;20181;-75
2021/05/09 09:00:50;;;;;;;1.53;1.23;;;18.30;99.90;;;;;;5054032;28;20334;-76
2021/05/09 09:03:16;;;;;;;2.57;1.27;;;18.30;99.90;;;;;;5070222;28;20203;-76
2021/05/09 09:05:44;;;;;;;1.60;1.43;;;18.40;99.90;;;;;;5057193;28;20289;-76
2021/05/09 09:08:14;;;;;;;2.43;1.77;;;18.40;99.90;;;;;;5047017;28;20576;-75
2021/05/09 09:10:43;;;;;;;3.67;1.50;;;18.50;99.90;;;;;;5046748;28;20181;-76
2021/05/09 09:13:33;;;;;;;3.47;1.83;;;18.70;99.90;;;;;;5076536;28;20729;-80
2021/05/09 09:16:00;;;;;;;1.60;1.33;;;;;;;;;;5077006;28;20173;-80
2021/05/09 09:18:30;;;;;;;3.23;1.40;;;;;;;;;;5078106;28;20276;-80
2021/05/09 09:20:57;;;;;;;2.20;1.50;;;;;;;;;;5075512;28;20186;-80
2021/05/09 09:23:23;;;;;;;2.27;1.50;;;;;;;;;;5080781;28;20196;-81
2021/05/09 09:25:49;;;;;;;2.87;1.50;;;;;;;;;;5081546;28;20565;-81
2021/05/09 09:28:17;;;;;;;3.10;1.43;;;;;;;;;;5080730;28;20260;-80
2021/05/09 09:30:53;;;;;;;1.90;1.10;;;;;;;;;;5079480;28;20176;-81
2021/05/09 09:33:19;;;;;;;2.83;1.47;;;;;;;;;;5076973;28;20196;-80
2021/05/09 09:35:46;;;;;;;1.57;1.17;;;;;;;;;;5065031;28;20225;-80
2021/05/09 09:38:25;;;;;;;1.77;1.20;;;18.80;99.90;;;;;;5068516;28;20187;-80
2021/05/09 09:41:12;;;;;;;1.67;1.20;;;19.90;99.90;;;;;;5078853;28;20211;-80
2021/05/09 09:43:38;;;;;;;2.60;1.03;;;20.10;99.90;;;;;;5079722;28;20196;-80
2021/05/09 09:46:04;;;;;;;1.47;1.10;;;20.00;99.90;;;;;;5077802;28;20204;-80
2021/05/09 09:48:37;;;;;;;1.17;0.87;;;;;;;;;;5078441;28;20238;-80
2021/05/09 09:51:03;;;;;;;1.57;0.93;;;20.30;99.90;;;;;;5077036;28;20180;-80
2021/05/09 09:53:40;;;;;;;0.93;0.80;;;20.50;99.90;;;;;;5079037;28;20213;-80
2021/05/09 09:56:12;;;;;;;1.17;0.70;;;20.60;99.90;;;;;;5084885;28;20255;-80
2021/05/09 09:58:46;;;;;;;0.87;0.60;;;20.80;99.90;;;;;;5083209;28;20299;-81
2021/05/09 10:01:15;;;;;;;1.10;0.80;;;20.90;99.90;;;;;;5071312;28;20185;-80
2021/05/09 10:03:41;;;;;;;1.80;0.90;;;20.90;99.90;;;;;;5059123;28;20229;-80
2021/05/09 10:06:07;;;;;;;0.93;0.60;;;21.20;99.90;;;;;;5061051;28;20695;-81
2021/05/09 10:08:34;;;;;;;1.17;0.70;;;21.20;99.90;;;;;;5061424;28;20182;-80
2021/05/09 10:11:01;;;;;;;0.83;0.70;;;21.30;99.90;;;;;;5052362;28;20178;-81
2021/05/09 10:13:28;;;;;;;1.33;0.80;;;21.40;99.90;;;;;;5061859;28;20201;-80
2021/05/09 10:15:54;;;;;;;0.83;0.80;;;21.60;99.90;;;;;;5061421;28;20589;-81
2021/05/09 10:18:21;;;;;;;1.23;0.83;;;;;;;;;;5062655;28;20228;-81
2021/05/09 10:20:47;;;;;;;0.83;0.70;;;;;;;;;;5061238;28;20186;-80
2021/05/09 10:23:13;;;;;;;0.67;0.53;;;;;;;;;;5061797;28;20201;-81
2021/05/09 10:25:44;;;;;;;0.77;0.60;;;21.70;99.90;;;;;;5062966;28;20204;-81
2021/05/09 10:28:11;;;;;;;0.73;0.43;;;22.30;97.60;;;;;;5062451;28;20539;-80
2021/05/09 10:30:51;;;;;;;0.70;0.70;;;22.30;99.70;;;;;;5061610;28;20241;-79
2021/05/09 10:33:39;;;;;;;0.70;0.60;;;22.40;99.90;;;;;;5061621;28;20189;-80
2021/05/09 10:36:07;;;;;;;0.90;0.70;;;22.50;96.30;;;;;;5061105;28;20534;-80
2021/05/09 10:39:07;;;;;;;0.80;0.70;;;22.70;97.30;;;;;;5061706;28;20625;-81
2021/05/09 10:41:33;;;;;;;0.77;0.50;;;22.70;97.10;;;;;;5059644;28;20182;-80
2021/05/09 10:43:59;;;;;;;0.80;0.70;;;22.90;97.50;;;;;;5059818;28;20202;-80
2021/05/09 10:46:25;;;;;;;0.97;0.87;;;23.00;95.60;;;;;;5060337;28;20231;-80
2021/05/09 10:49:10;;;;;;;1.67;0.80;;;23.00;97.00;;;;;;5060983;28;20180;-81
2021/05/09 10:51:37;;;;;;;1.10;0.67;;;23.20;98.00;;;;;;5062678;28;20201;-81
2021/05/09 10:54:29;;;;;;;1.47;0.60;;;23.30;95.50;;;;;;5060678;28;20253;-80
2021/05/09 10:56:55;;;;;;;0.40;0.40;;;23.40;95.50;;;;;;5058391;28;20214;-80
2021/05/09 10:59:56;;;;;;;1.00;0.47;;;23.50;92.60;;;;;;5061727;28;20189;-80
2021/05/09 11:02:29;;;;;;;1.13;0.57;;;23.50;92.20;;;;;;5062403;28;20168;-80
2021/05/09 11:04:54;;;;;;;2.10;0.77;;;23.50;92.70;;;;;;5061951;28;20202;-80
2021/05/09 11:07:43;;;;;;;1.47;0.50;;;23.50;91.60;;;;;;5062599;28;20666;-80
2021/05/09 11:10:37;;;;;;;1.13;0.50;;;23.40;92.50;;;;;;5061483;28;20265;-80
2021/05/09 11:13:07;;;;;;;1.60;0.50;;;23.30;92.80;;;;;;5061279;28;20259;-80
2021/05/09 11:15:33;;;;;;;0.97;0.70;;;23.50;93.20;;;;;;5060286;28;20197;-80
2021/05/09 11:17:58;;;;;;;0.50;0.50;;;23.80;96.80;;;;;;5059509;28;20208;-80
2021/05/09 11:20:24;;;;;;;3.07;2.50;;;23.80;92.70;;;;;;5059728;28;20588;-80
2021/05/09 11:22:59;;;;;;;0.80;0.50;;;23.80;94.90;;;;;;5060483;28;20177;-80
2021/05/09 11:25:31;;;;;;;1.60;0.80;;;23.70;96.30;;;;;;5058842;28;20173;-80
2021/05/09 11:27:58;;;;;;;0.83;0.80;;;;;;;;;;5053147;28;20170;-80
2021/05/09 11:30:36;;;;;;;2.40;1.00;;;;;;;;;;5055362;28;20547;-79
2021/05/09 11:33:02;;;;;;;1.33;0.70;;;;;;;;;;5053572;28;20193;-80
2021/05/09 11:35:38;;;;;;;1.20;1.00;;;;;;;;;;5052406;28;20204;-80
2021/05/09 11:38:13;;;;;;;1.23;0.83;;;23.90;99.00;;;;;;5052338;28;20170;-80
2021/05/09 11:40:39;;;;;;;1.03;0.90;;;24.30;98.90;;;;;;5054219;28;20260;-80
2021/05/09 11:43:13;;;;;;;2.33;1.23;;;24.30;99.90;;;;;;5054866;28;20224;-80
2021/05/09 11:45:38;;;;;;;2.60;0.80;;;24.30;99.70;;;;;;5058290;28;20551;-80
2021/05/09 11:48:04;;;;;;;1.07;0.80;;;24.20;99.90;;;;;;5056739;28;20178;-80
2021/05/09 11:50:30;;;;;;;1.40;0.70;;;24.30;99.30;;;;;;5057971;28;20181;-80
2021/05/09 11:52:56;;;;;;;1.80;1.13;;;24.40;99.90;;;;;;5057199;28;20263;-80
2021/05/09 11:55:22;;;;;;;1.50;0.97;;;24.40;99.90;;;;;;5056022;28;20198;-80
2021/05/09 11:57:47;;;;;;;1.10;0.90;;;24.40;99.90;;;;;;5057665;28;20694;-80
2021/05/09 12:00:17;;;;;;;1.27;1.07;;;24.60;99.90;;;;;;5055684;28;20180;-79
2021/05/09 12:02:45;;;;;;;1.87;1.07;;;24.40;99.50;;;;;;5057445;28;20177;-80
2021/05/09 12:05:13;;;;;;;1.60;1.07;;;24.40;99.90;;;;;;5050234;28;20177;-80
2021/05/09 12:07:59;;;;;;;2.73;0.90;;;24.50;99.90;;;;;;5056753;28;20174;-80
2021/05/09 12:10:24;;;;;;;0.73;0.70;;;24.50;99.50;;;;;;5055188;28;20523;-80
2021/05/09 12:13:00;;;;;;;0.60;0.53;;;24.60;98.50;;;;;;5052654;28;20235;-80
2021/05/09 12:15:31;;;;;;;0.73;0.70;;;24.50;98.40;;;;;;5053808;28;20204;-79
2021/05/09 12:17:57;;;;;;;0.93;0.70;;;24.50;99.20;;;;;;5057501;28;20296;-79
2021/05/09 12:20:30;;;;;;;1.27;0.80;;;24.60;99.70;;;;;;5057458;28;20669;-80
2021/05/09 12:23:04;;;;;;;0.50;0.50;;;24.70;98.80;;;;;;5056079;28;20202;-79
2021/05/09 12:25:41;;;;;;;0.57;0.40;;;24.90;97.40;;;;;;5057040;28;20178;-80
2021/05/09 12:28:27;;;;;;;1.30;0.70;;;25.20;95.20;;;;;;5057228;28;20197;-80
2021/05/09 12:30:53;;;;;;;0.67;0.60;;;25.40;95.90;;;;;;5056256;28;20245;-80
2021/05/09 12:33:26;;;;;;;0.90;0.40;;;25.50;94.10;;;;;;5056737;28;20606;-78
2021/05/09 12:35:54;;;;;;;1.10;0.60;;;25.40;93.30;;;;;;5056598;28;20194;-80
2021/05/09 12:38:25;;;;;;;0.90;0.60;;;25.50;94.50;;;;;;5055213;28;20544;-80
2021/05/09 12:41:05;;;;;;;0.97;0.50;;;25.60;93.60;;;;;;5056681;28;20174;-80
2021/05/09 12:43:45;;;;;;;1.80;0.60;;;25.70;95.60;;;;;;5056661;28;20189;-80
2021/05/09 12:46:32;;;;;;;1.80;0.50;;;25.80;93.00;;;;;;5056458;28;20189;-78
2021/05/09 12:49:07;;;;;;;0.63;0.63;;;26.00;93.20;;;;;;5055827;28;20181;-79
2021/05/09 12:51:33;;;;;;;5.77;4.90;;;26.10;92.90;;;;;;5055086;28;20177;-80
2021/05/09 12:53:58;;;;;;;1.00;0.80;;;26.30;94.30;;;;;;5056778;28;20583;-80
2021/05/09 12:56:32;;;;;;;1.57;0.83;;;26.40;91.10;;;;;;5057245;28;20668;-80
2021/05/09 12:59:02;;;;;;;0.93;0.60;;;26.40;91.40;;;;;;5060799;28;20542;-80